Time;durP1;ratioP1;P1;durP2;ratioP2;P2;SDS_P1;SDS_P2;PMS_P1;PMS_P2;Temp;Humidity;BMP_temperature;BMP_pressure;BME280_temperature;BME280_humidity;BME280_pressure;Samples;Min_cycle;Max_cycle;Signal;HPM_P1;HPM_P2
2024/01/28 00:01:45;;;;;;;1.73;1.10;;;22.50;47.40;;;;;;5070646;28;20081;-62
2024/01/28 00:04:10;;;;;;;1.67;1.02;;;22.50;47.40;;;;;;5080030;28;20024;-62
2024/01/28 00:06:36;;;;;;;1.88;1.00;;;22.50;47.40;;;;;;5080397;28;20067;-62
2024/01/28 00:09:02;;;;;;;2.33;1.10;;;22.50;47.40;;;;;;5082115;28;20034;-63
2024/01/28 00:11:27;;;;;;;2.28;1.20;;;22.50;47.40;;;;;;5081460;28;20032;-63
2024/01/28 00:13:53;;;;;;;2.13;1.23;;;22.50;47.40;;;;;;5081463;28;20086;-64
2024/01/28 00:16:19;;;;;;;2.20;1.20;;;22.50;47.50;;;;;;5081127;28;20103;-63
2024/01/28 00:18:45;;;;;;;2.20;1.20;;;22.50;47.50;;;;;;5079282;28;20396;-63
2024/01/28 00:21:11;;;;;;;2.28;1.33;;;22.50;47.40;;;;;;5061252;28;20027;-63
2024/01/28 00:23:36;;;;;;;1.95;1.20;;;22.50;48.00;;;;;;5080963;28;20021;-63
2024/01/28 00:26:02;;;;;;;2.25;1.35;;;22.50;47.40;;;;;;5080004;28;20027;-62
2024/01/28 00:28:28;;;;;;;1.77;1.00;;;22.60;47.50;;;;;;5080690;28;20032;-63
2024/01/28 00:30:54;;;;;;;1.55;1.05;;;22.50;47.50;;;;;;5079574;28;20537;-62
2024/01/28 00:33:20;;;;;;;2.20;1.30;;;22.60;47.60;;;;;;5079954;28;20028;-62
2024/01/28 00:35:46;;;;;;;2.40;1.20;;;22.60;47.50;;;;;;5078459;28;20025;-62
2024/01/28 00:38:11;;;;;;;1.77;1.10;;;22.50;47.50;;;;;;5078737;28;20028;-62
2024/01/28 00:40:37;;;;;;;2.13;1.20;;;22.60;47.50;;;;;;5081208;28;20169;-64
2024/01/28 00:43:03;;;;;;;2.08;1.10;;;22.60;47.50;;;;;;5080352;28;20634;-63
2024/01/28 00:45:30;;;;;;;2.40;1.40;;;22.60;47.50;;;;;;5080462;28;20047;-64
2024/01/28 00:47:56;;;;;;;2.50;1.40;;;22.60;47.50;;;;;;5082027;28;20089;-63
2024/01/28 00:50:21;;;;;;;2.13;1.20;;;22.60;47.40;;;;;;5079236;28;20538;-62
2024/01/28 00:52:48;;;;;;;1.77;1.02;;;22.60;47.40;;;;;;5071031;28;20091;-66
2024/01/28 00:55:13;;;;;;;2.30;1.23;;;22.60;47.20;;;;;;5078780;28;20473;-67
2024/01/28 00:57:39;;;;;;;1.42;1.00;;;22.50;47.30;;;;;;5079470;28;20040;-67
2024/01/28 01:00:06;;;;;;;2.45;1.17;;;22.60;47.30;;;;;;5080435;28;20044;-66
2024/01/28 01:02:32;;;;;;;2.22;1.13;;;22.60;47.20;;;;;;5079385;28;20425;-66
2024/01/28 01:04:57;;;;;;;1.35;1.08;;;22.60;47.20;;;;;;5080635;28;20059;-67
2024/01/28 01:07:23;;;;;;;1.73;1.15;;;22.60;47.20;;;;;;5079763;28;20039;-66
2024/01/28 01:09:49;;;;;;;2.20;1.10;;;22.60;47.10;;;;;;5079034;28;20248;-66
2024/01/28 01:12:15;;;;;;;2.08;1.13;;;22.60;47.10;;;;;;5078376;28;20062;-67
2024/01/28 01:14:40;;;;;;;1.70;1.15;;;22.60;47.10;;;;;;5079956;28;20028;-67
2024/01/28 01:17:06;;;;;;;1.95;1.27;;;22.60;47.10;;;;;;5082727;28;20043;-67
2024/01/28 01:19:32;;;;;;;1.42;1.10;;;22.60;47.00;;;;;;5078732;28;20035;-66
2024/01/28 01:21:58;;;;;;;2.03;1.10;;;22.60;47.00;;;;;;5079869;28;20032;-67
2024/01/28 01:24:24;;;;;;;1.92;1.23;;;22.60;47.00;;;;;;5078369;28;20122;-69
2024/01/28 01:26:51;;;;;;;1.98;1.20;;;22.60;47.00;;;;;;5077018;28;20472;-69
2024/01/28 01:29:16;;;;;;;1.80;1.20;;;22.50;46.90;;;;;;5075834;28;20381;-68
2024/01/28 01:31:42;;;;;;;2.03;1.13;;;22.60;47.00;;;;;;5079225;28;20032;-69
2024/01/28 01:34:08;;;;;;;2.83;1.30;;;22.60;46.90;;;;;;5078496;28;20031;-68
2024/01/28 01:36:33;;;;;;;1.55;1.02;;;22.60;46.90;;;;;;5079613;28;20173;-70
2024/01/28 01:38:59;;;;;;;1.52;0.93;;;22.50;46.80;;;;;;5078281;28;20055;-68
2024/01/28 01:41:25;;;;;;;1.45;1.13;;;22.60;46.90;;;;;;5077595;28;20028;-69
2024/01/28 01:43:52;;;;;;;1.83;1.10;;;22.60;46.80;;;;;;5069727;28;20111;-69
2024/01/28 01:46:18;;;;;;;2.47;1.20;;;22.60;47.30;;;;;;5093741;28;20115;-69
2024/01/28 01:48:45;;;;;;;1.95;1.20;;;22.60;46.70;;;;;;5079180;28;20028;-69
2024/01/28 01:51:11;;;;;;;1.77;1.10;;;22.60;47.20;;;;;;5078131;28;20496;-68
2024/01/28 01:53:38;;;;;;;2.08;1.20;;;22.60;46.70;;;;;;5078335;28;20397;-69
2024/01/28 01:56:05;;;;;;;1.73;1.08;;;22.60;46.70;;;;;;5079855;28;20044;-69
2024/01/28 01:58:31;;;;;;;2.15;1.15;;;22.60;46.70;;;;;;5077301;28;20139;-68
2024/01/28 02:00:58;;;;;;;1.80;1.20;;;22.60;46.70;;;;;;5079579;28;20048;-69
2024/01/28 02:03:26;;;;;;;1.85;1.02;;;22.60;46.60;;;;;;5079453;28;20067;-68
2024/01/28 02:05:52;;;;;;;2.58;1.20;;;22.60;46.60;;;;;;5076900;28;20134;-69
2024/01/28 02:08:18;;;;;;;2.45;1.20;;;22.60;46.60;;;;;;5078779;28;20115;-69
2024/01/28 02:10:45;;;;;;;1.90;1.33;;;22.60;46.50;;;;;;5076271;28;20570;-70
2024/01/28 02:13:10;;;;;;;1.80;1.17;;;22.60;46.50;;;;;;5077280;28;20378;-66
2024/01/28 02:15:40;;;;;;;2.38;1.35;;;22.60;46.50;;;;;;5077988;28;20085;-63
2024/01/28 02:18:06;;;;;;;2.13;1.15;;;22.60;46.50;;;;;;5078558;28;20491;-63
2024/01/28 02:20:31;;;;;;;1.48;1.00;;;22.60;46.50;;;;;;5080644;28;20028;-62
2024/01/28 02:22:57;;;;;;;1.50;1.00;;;22.60;46.50;;;;;;5079892;28;20024;-63
2024/01/28 02:25:23;;;;;;;1.80;1.10;;;22.60;46.40;;;;;;5078252;28;20434;-63
2024/01/28 02:27:49;;;;;;;1.92;1.20;;;22.60;46.60;;;;;;5077957;28;20036;-63
2024/01/28 02:30:15;;;;;;;2.05;1.20;;;22.60;46.50;;;;;;5079550;28;20564;-64
2024/01/28 02:32:48;;;;;;;1.80;1.13;;;22.60;46.50;;;;;;5078776;28;20032;-62
2024/01/28 02:35:15;;;;;;;2.13;1.10;;;22.60;46.40;;;;;;5079249;28;20028;-63
2024/01/28 02:37:40;;;;;;;2.25;1.10;;;22.60;46.40;;;;;;5078560;28;20020;-63
2024/01/28 02:40:07;;;;;;;1.90;1.13;;;22.60;46.40;;;;;;5078363;28;20108;-62
2024/01/28 02:42:32;;;;;;;2.20;1.15;;;22.50;46.30;;;;;;5078792;28;20137;-65
2024/01/28 02:44:58;;;;;;;1.67;1.17;;;22.50;46.30;;;;;;5080431;28;20024;-63
2024/01/28 02:47:23;;;;;;;1.60;1.10;;;22.50;46.30;;;;;;5080063;28;20017;-63
2024/01/28 02:49:49;;;;;;;1.98;1.10;;;22.50;46.30;;;;;;5080835;28;20032;-63
2024/01/28 02:52:15;;;;;;;2.00;1.27;;;22.50;46.30;;;;;;5065240;28;20461;-64
2024/01/28 02:54:40;;;;;;;1.77;0.98;;;22.40;46.30;;;;;;5064578;28;20501;-63
2024/01/28 02:57:06;;;;;;;1.70;1.10;;;22.40;46.20;;;;;;5080880;28;20028;-62
2024/01/28 02:59:32;;;;;;;1.50;1.13;;;22.40;46.30;;;;;;5081944;28;20024;-63
2024/01/28 03:01:57;;;;;;;1.63;1.00;;;22.40;46.30;;;;;;5079765;28;20032;-64
2024/01/28 03:04:23;;;;;;;2.10;1.10;;;22.40;46.30;;;;;;5081706;28;20447;-63
2024/01/28 03:06:48;;;;;;;1.75;1.17;;;22.30;46.20;;;;;;5078914;28;20422;-63
2024/01/28 03:09:14;;;;;;;1.90;1.20;;;22.30;46.20;;;;;;5081879;28;20032;-64
2024/01/28 03:11:40;;;;;;;1.95;1.20;;;22.30;46.20;;;;;;5081964;28;20035;-63
2024/01/28 03:14:06;;;;;;;1.75;1.20;;;22.30;46.20;;;;;;5083243;28;20032;-63
2024/01/28 03:16:32;;;;;;;1.88;1.38;;;22.30;46.30;;;;;;5082333;28;20024;-64
2024/01/28 03:18:58;;;;;;;1.80;1.10;;;22.20;46.20;;;;;;5081468;28;20043;-63
2024/01/28 03:21:24;;;;;;;1.70;1.10;;;22.20;46.20;;;;;;5081015;28;20045;-64
2024/01/28 03:23:49;;;;;;;2.17;1.27;;;22.20;46.30;;;;;;5081427;28;20688;-66
2024/01/28 03:26:15;;;;;;;1.75;1.20;;;22.20;46.30;;;;;;5081767;28;20032;-67
2024/01/28 03:28:42;;;;;;;1.90;1.25;;;22.20;46.30;;;;;;5077675;28;20040;-66
2024/01/28 03:31:08;;;;;;;1.92;1.30;;;22.20;46.30;;;;;;5063451;28;20036;-66
2024/01/28 03:33:34;;;;;;;1.75;1.10;;;22.10;46.30;;;;;;5082519;28;20032;-66
2024/01/28 03:36:00;;;;;;;1.98;1.20;;;22.10;46.20;;;;;;5080830;28;20028;-66
2024/01/28 03:38:25;;;;;;;1.63;1.10;;;22.10;46.30;;;;;;5071016;28;20123;-66
2024/01/28 03:40:51;;;;;;;2.13;1.25;;;22.10;46.30;;;;;;5082054;28;20510;-66
2024/01/28 03:43:16;;;;;;;1.45;1.00;;;22.10;46.30;;;;;;5060580;28;20039;-66
2024/01/28 03:45:42;;;;;;;1.65;1.00;;;22.00;46.20;;;;;;5080801;28;20020;-66
2024/01/28 03:48:08;;;;;;;2.05;1.40;;;22.00;46.30;;;;;;5071463;28;20127;-66
2024/01/28 03:50:33;;;;;;;1.65;1.10;;;22.00;46.30;;;;;;5080797;28;20036;-67
2024/01/28 03:52:59;;;;;;;1.92;1.17;;;21.90;46.30;;;;;;5081028;28;20036;-67
2024/01/28 03:55:25;;;;;;;2.08;1.00;;;21.90;46.30;;;;;;5080056;28;20040;-67
2024/01/28 03:57:50;;;;;;;1.63;1.05;;;21.90;46.30;;;;;;5079505;28;20426;-67
2024/01/28 04:00:18;;;;;;;1.65;1.15;;;21.90;46.40;;;;;;5081875;28;20115;-66
2024/01/28 04:02:44;;;;;;;1.73;1.00;;;21.90;46.40;;;;;;5071302;28;20028;-67
2024/01/28 04:05:10;;;;;;;2.30;1.17;;;21.90;46.30;;;;;;5081145;28;20401;-67
2024/01/28 04:07:36;;;;;;;1.67;1.10;;;21.80;46.30;;;;;;5062381;28;20032;-67
2024/01/28 04:10:02;;;;;;;1.60;1.10;;;21.80;46.90;;;;;;5081035;28;20025;-67
2024/01/28 04:12:28;;;;;;;1.50;1.00;;;21.80;46.40;;;;;;5060650;28;20028;-67
2024/01/28 04:14:54;;;;;;;1.90;1.10;;;21.80;46.40;;;;;;5080157;28;20545;-67
2024/01/28 04:17:20;;;;;;;1.98;1.00;;;21.80;46.40;;;;;;5079231;28;20031;-67
2024/01/28 04:19:46;;;;;;;1.60;1.10;;;21.70;46.30;;;;;;5078229;28;20024;-67
2024/01/28 04:22:11;;;;;;;1.75;1.10;;;21.70;46.40;;;;;;5079450;28;20024;-67
2024/01/28 04:24:37;;;;;;;1.60;0.90;;;21.70;46.40;;;;;;5080727;28;20037;-67
2024/01/28 04:27:03;;;;;;;1.80;1.02;;;21.70;46.50;;;;;;5080566;28;20147;-67
2024/01/28 04:29:29;;;;;;;1.70;1.00;;;21.70;46.50;;;;;;5077689;28;20042;-66
2024/01/28 04:31:55;;;;;;;1.30;0.90;;;21.70;46.50;;;;;;5095046;28;20032;-67
2024/01/28 04:34:22;;;;;;;1.02;0.80;;;21.60;46.50;;;;;;5079481;28;20512;-67
2024/01/28 04:36:48;;;;;;;1.45;0.90;;;21.60;46.50;;;;;;5079727;28;20382;-67
2024/01/28 04:39:14;;;;;;;1.88;1.00;;;21.60;46.50;;;;;;5080778;28;20028;-67
2024/01/28 04:41:39;;;;;;;1.48;1.10;;;21.60;46.50;;;;;;5081976;28;20028;-67
2024/01/28 04:44:05;;;;;;;1.48;0.88;;;21.60;46.60;;;;;;5080268;28;20383;-67
2024/01/28 04:46:31;;;;;;;1.50;1.00;;;21.50;46.50;;;;;;5079962;28;20096;-67
2024/01/28 04:48:57;;;;;;;1.88;1.10;;;21.50;46.50;;;;;;5070493;28;20028;-67
2024/01/28 04:51:23;;;;;;;1.10;0.90;;;21.50;46.60;;;;;;5080745;28;20031;-67
2024/01/28 04:53:49;;;;;;;2.15;1.00;;;21.50;46.60;;;;;;5069628;28;20107;-67
2024/01/28 04:56:14;;;;;;;1.52;1.00;;;21.50;46.60;;;;;;5079318;28;20028;-65
2024/01/28 04:58:40;;;;;;;1.98;1.10;;;21.50;47.20;;;;;;5060732;28;20024;-65
2024/01/28 05:01:05;;;;;;;1.50;0.90;;;21.50;46.60;;;;;;5079795;28;20107;-66
2024/01/28 05:03:31;;;;;;;1.40;1.00;;;21.40;46.60;;;;;;5079251;28;20056;-65
2024/01/28 05:05:58;;;;;;;1.60;1.00;;;21.40;46.80;;;;;;5079798;28;20028;-65
2024/01/28 05:08:24;;;;;;;1.65;1.10;;;21.40;46.70;;;;;;5069727;28;20028;-66
2024/01/28 05:10:49;;;;;;;1.30;0.95;;;21.40;46.70;;;;;;5075567;28;20048;-65
2024/01/28 05:13:15;;;;;;;1.95;1.08;;;21.40;46.70;;;;;;5078406;28;20390;-66
2024/01/28 05:15:42;;;;;;;1.42;0.90;;;21.40;46.80;;;;;;5079942;28;20035;-65
2024/01/28 05:18:08;;;;;;;1.30;1.00;;;21.40;46.80;;;;;;5063466;28;20055;-66
2024/01/28 05:20:34;;;;;;;1.52;1.10;;;21.30;46.70;;;;;;5079968;28;20074;-66
2024/01/28 05:22:59;;;;;;;1.52;1.10;;;21.40;46.80;;;;;;5079573;28;20028;-66
2024/01/28 05:25:26;;;;;;;1.15;1.00;;;21.30;46.70;;;;;;5077591;28;20050;-66
2024/01/28 05:27:52;;;;;;;1.50;1.10;;;21.30;46.80;;;;;;5077459;28;20692;-66
2024/01/28 05:30:17;;;;;;;1.70;1.10;;;21.30;46.80;;;;;;5080568;28;20032;-65
2024/01/28 05:32:43;;;;;;;1.85;1.02;;;21.30;46.80;;;;;;5079732;28;20039;-65
2024/01/28 05:35:09;;;;;;;1.65;1.00;;;21.30;46.80;;;;;;5076990;28;20034;-65
2024/01/28 05:37:36;;;;;;;2.10;1.10;;;21.30;46.80;;;;;;5082407;28;20163;-65
2024/01/28 05:40:03;;;;;;;1.90;1.10;;;21.30;46.80;;;;;;5068330;28;20541;-65
2024/01/28 05:42:28;;;;;;;1.67;1.08;;;21.20;46.80;;;;;;5094242;28;20468;-65
2024/01/28 05:44:54;;;;;;;1.35;1.00;;;21.20;46.80;;;;;;5075910;28;20044;-65
2024/01/28 05:47:20;;;;;;;1.33;1.00;;;21.20;46.80;;;;;;5080157;28;20028;-65
2024/01/28 05:49:45;;;;;;;1.52;0.93;;;21.20;46.90;;;;;;5078280;28;20041;-66
2024/01/28 05:52:11;;;;;;;1.30;0.90;;;21.20;46.90;;;;;;5078950;28;20494;-65
2024/01/28 05:54:41;;;;;;;1.58;1.00;;;21.20;46.90;;;;;;5077875;28;20025;-66
2024/01/28 05:57:07;;;;;;;1.67;1.10;;;21.20;46.90;;;;;;5078368;28;20032;-65
2024/01/28 05:59:33;;;;;;;1.42;1.00;;;21.20;46.90;;;;;;5077053;28;20487;-65
2024/01/28 06:01:58;;;;;;;1.80;0.88;;;21.20;47.00;;;;;;5078234;28;20077;-65
2024/01/28 06:04:24;;;;;;;1.30;0.90;;;21.20;47.50;;;;;;5078820;28;20025;-70
2024/01/28 06:06:50;;;;;;;1.45;0.90;;;21.10;46.90;;;;;;5078345;28;20087;-71
2024/01/28 06:09:15;;;;;;;1.45;0.98;;;21.10;46.90;;;;;;5077590;28;20135;-70
2024/01/28 06:11:43;;;;;;;1.20;0.90;;;21.10;46.90;;;;;;5078775;28;20124;-70
2024/01/28 06:14:10;;;;;;;1.55;1.02;;;21.10;46.90;;;;;;5077106;28;20449;-69
2024/01/28 06:16:35;;;;;;;1.10;0.90;;;21.10;47.00;;;;;;5083233;28;20111;-69
2024/01/28 06:19:01;;;;;;;1.55;0.95;;;21.00;46.90;;;;;;5082708;28;20143;-70
2024/01/28 06:21:26;;;;;;;1.48;0.93;;;21.10;47.00;;;;;;5080501;28;20034;-70
2024/01/28 06:23:52;;;;;;;1.42;0.90;;;21.10;47.00;;;;;;5081652;28;20082;-69
2024/01/28 06:26:18;;;;;;;1.20;0.80;;;21.00;47.00;;;;;;5063531;28;20479;-69
2024/01/28 06:28:45;;;;;;;1.38;1.13;;;21.00;47.20;;;;;;5076862;28;20115;-69
2024/01/28 06:31:12;;;;;;;1.85;1.00;;;21.00;47.20;;;;;;5084204;28;20032;-69
2024/01/28 06:33:38;;;;;;;1.60;0.90;;;21.00;47.20;;;;;;5072239;28;20074;-69
2024/01/28 06:36:04;;;;;;;1.40;0.93;;;21.00;47.30;;;;;;5082611;28;21547;-68
2024/01/28 06:38:30;;;;;;;1.50;1.00;;;21.00;47.30;;;;;;5080378;28;20476;-69
2024/01/28 06:40:59;;;;;;;1.50;0.90;;;21.00;47.30;;;;;;5081692;28;20082;-68
2024/01/28 06:43:25;;;;;;;1.48;1.00;;;21.00;47.30;;;;;;5080298;28;20110;-68
2024/01/28 06:45:54;;;;;;;1.58;0.88;;;21.00;47.30;;;;;;5082050;28;20159;-69
2024/01/28 06:48:20;;;;;;;2.03;1.10;;;21.00;47.30;;;;;;5080465;28;20032;-69
2024/01/28 06:50:46;;;;;;;1.10;0.90;;;20.90;47.30;;;;;;5081742;28;20028;-68
2024/01/28 06:53:12;;;;;;;1.30;0.80;;;20.90;47.30;;;;;;5082359;28;20429;-69
2024/01/28 06:55:38;;;;;;;1.35;0.90;;;20.90;47.30;;;;;;5084825;28;20032;-68
2024/01/28 06:58:04;;;;;;;1.00;0.90;;;20.90;47.40;;;;;;5079699;28;20024;-68
2024/01/28 07:00:29;;;;;;;1.38;0.90;;;20.90;47.40;;;;;;5078251;28;20440;-68
2024/01/28 07:02:55;;;;;;;1.20;0.90;;;20.90;47.40;;;;;;5063074;28;20020;-68
2024/01/28 07:05:21;;;;;;;1.20;0.90;;;20.90;47.40;;;;;;5084727;28;20111;-68
2024/01/28 07:07:47;;;;;;;2.08;1.10;;;20.90;47.50;;;;;;5080750;28;20107;-68
2024/01/28 07:10:12;;;;;;;1.13;0.85;;;20.90;47.50;;;;;;5080587;28;20082;-68
2024/01/28 07:12:39;;;;;;;1.10;0.90;;;20.90;47.50;;;;;;5082001;28;20043;-68
2024/01/28 07:15:05;;;;;;;1.05;0.90;;;20.90;48.00;;;;;;5079323;28;20032;-69
2024/01/28 07:17:31;;;;;;;2.03;1.10;;;20.90;47.50;;;;;;5080904;28;20495;-68
2024/01/28 07:19:58;;;;;;;1.70;1.10;;;20.80;47.50;;;;;;5082351;28;20026;-68
2024/01/28 07:22:23;;;;;;;1.30;0.90;;;20.80;47.50;;;;;;5080392;28;20020;-69
2024/01/28 07:24:49;;;;;;;1.42;0.90;;;20.80;47.50;;;;;;5080356;28;20085;-69
2024/01/28 07:27:15;;;;;;;1.65;1.00;;;20.80;47.60;;;;;;5080849;28;20027;-69
2024/01/28 07:29:41;;;;;;;1.40;1.00;;;20.80;47.60;;;;;;5080233;28;20040;-70
2024/01/28 07:32:06;;;;;;;1.85;1.00;;;20.80;47.70;;;;;;5079845;28;20052;-68
2024/01/28 07:34:32;;;;;;;1.38;0.98;;;20.70;47.60;;;;;;5081411;28;20476;-68
2024/01/28 07:36:58;;;;;;;1.45;1.00;;;20.70;47.60;;;;;;5078726;28;20031;-69
2024/01/28 07:39:26;;;;;;;1.50;1.05;;;20.70;47.70;;;;;;5079059;28;20061;-69
2024/01/28 07:41:52;;;;;;;1.17;1.00;;;20.80;47.80;;;;;;5063240;28;20061;-69
2024/01/28 07:44:17;;;;;;;1.30;0.90;;;20.70;47.80;;;;;;5078736;28;20058;-69
2024/01/28 07:46:43;;;;;;;1.30;1.00;;;20.70;47.80;;;;;;5083275;28;20509;-70
2024/01/28 07:49:09;;;;;;;1.33;0.95;;;20.70;48.30;;;;;;5079643;28;20490;-69
2024/01/28 07:51:35;;;;;;;1.45;0.95;;;20.70;47.80;;;;;;5081363;28;20036;-75
2024/01/28 07:54:01;;;;;;;1.52;1.10;;;20.70;47.80;;;;;;5080438;28;20540;-73
2024/01/28 07:56:26;;;;;;;1.35;1.00;;;20.70;47.90;;;;;;5081028;28;20778;-73
2024/01/28 07:58:53;;;;;;;1.40;1.00;;;20.70;47.80;;;;;;5080093;28;20024;-69
2024/01/28 08:01:18;;;;;;;1.10;0.90;;;20.70;47.90;;;;;;5093811;28;20032;-73
2024/01/28 08:03:44;;;;;;;1.60;0.90;;;20.70;47.90;;;;;;5080250;28;20024;-73
2024/01/28 08:06:09;;;;;;;1.20;0.93;;;20.70;47.90;;;;;;5071612;28;20448;-68
2024/01/28 08:08:35;;;;;;;1.30;0.90;;;20.70;47.90;;;;;;5080533;28;20024;-69
2024/01/28 08:11:01;;;;;;;1.42;0.95;;;20.70;47.90;;;;;;5081245;28;20073;-69
2024/01/28 08:13:27;;;;;;;1.48;0.90;;;20.70;47.90;;;;;;5079181;28;20524;-69
2024/01/28 08:15:59;;;;;;;1.48;0.98;;;20.60;47.80;;;;;;5082065;28;20191;-68
2024/01/28 08:18:24;;;;;;;1.13;0.90;;;20.70;47.90;;;;;;5080846;28;20052;-68
2024/01/28 08:20:50;;;;;;;1.33;0.88;;;20.60;47.90;;;;;;5080373;28;20382;-68
2024/01/28 08:23:15;;;;;;;1.80;1.10;;;20.60;48.00;;;;;;5069807;28;20031;-68
2024/01/28 08:25:41;;;;;;;2.17;1.02;;;20.60;47.90;;;;;;5080631;28;20377;-72
2024/01/28 08:28:06;;;;;;;1.73;1.00;;;20.60;47.90;;;;;;5079833;28;20058;-71
2024/01/28 08:30:32;;;;;;;2.15;0.98;;;20.60;47.90;;;;;;5079836;28;20040;-71
2024/01/28 08:32:58;;;;;;;1.55;1.00;;;20.60;47.80;;;;;;5080855;28;20043;-71
2024/01/28 08:35:23;;;;;;;1.40;1.00;;;20.60;47.90;;;;;;5079349;28;20557;-70
2024/01/28 08:37:49;;;;;;;1.50;1.00;;;20.60;47.80;;;;;;5070229;28;20218;-70
2024/01/28 08:40:15;;;;;;;1.73;1.10;;;20.60;48.40;;;;;;5076337;28;20029;-70
2024/01/28 08:42:40;;;;;;;1.83;0.90;;;20.60;47.80;;;;;;5059079;28;20024;-70
2024/01/28 08:45:06;;;;;;;1.75;1.05;;;20.60;47.70;;;;;;5078058;28;20031;-70
2024/01/28 08:47:32;;;;;;;1.52;0.95;;;20.60;47.80;;;;;;5078614;28;20028;-71
2024/01/28 08:49:58;;;;;;;1.63;1.00;;;20.60;47.70;;;;;;5079857;28;20036;-72
2024/01/28 08:52:23;;;;;;;1.70;1.00;;;20.60;47.70;;;;;;5079801;28;20433;-69
2024/01/28 08:54:49;;;;;;;1.35;1.08;;;20.60;47.70;;;;;;5080573;28;20017;-69
2024/01/28 08:57:15;;;;;;;1.77;1.23;;;20.60;47.70;;;;;;5076802;28;20499;-70
2024/01/28 08:59:40;;;;;;;1.85;1.10;;;20.60;47.60;;;;;;5060216;28;20123;-69
2024/01/28 09:02:06;;;;;;;2.30;1.13;;;20.50;47.60;;;;;;5077951;28;20043;-70
2024/01/28 09:04:32;;;;;;;1.33;0.90;;;20.50;47.50;;;;;;5077765;28;20024;-69
2024/01/28 09:06:57;;;;;;;2.00;1.13;;;20.50;47.60;;;;;;5077659;28;20285;-69
2024/01/28 09:09:23;;;;;;;2.17;1.10;;;20.60;47.60;;;;;;5060169;28;20103;-69
2024/01/28 09:11:49;;;;;;;1.40;1.00;;;20.50;47.60;;;;;;5061059;28;20032;-69
2024/01/28 09:14:14;;;;;;;1.77;1.00;;;20.50;47.90;;;;;;5078345;28;20055;-64
2024/01/28 09:16:40;;;;;;;2.17;1.25;;;20.50;47.50;;;;;;5078173;28;20421;-63
2024/01/28 09:19:06;;;;;;;2.17;1.40;;;20.50;47.50;;;;;;5075376;28;20025;-63
2024/01/28 09:21:32;;;;;;;2.38;1.42;;;20.50;47.50;;;;;;5078628;28;20028;-64
2024/01/28 09:24:00;;;;;;;2.30;1.40;;;20.50;48.00;;;;;;5077708;28;20472;-64
2024/01/28 09:26:26;;;;;;;2.80;1.83;;;20.50;47.50;;;;;;5078148;28;20060;-64
2024/01/28 09:28:52;;;;;;;4.57;2.10;;;20.50;47.50;;;;;;5078678;28;20513;-65
2024/01/28 09:31:17;;;;;;;7.63;3.15;;;20.50;47.50;;;;;;5065772;28;20026;-65
2024/01/28 09:33:43;;;;;;;6.70;3.30;;;20.50;47.50;;;;;;5077032;28;20106;-66
2024/01/28 09:36:09;;;;;;;7.28;3.88;;;20.50;47.50;;;;;;5061501;28;20028;-68
2024/01/28 09:38:34;;;;;;;9.50;4.68;;;20.50;47.50;;;;;;5078652;28;20020;-67
2024/01/28 09:41:16;;;;;;;9.52;5.43;;;20.50;47.50;;;;;;5076129;28;20078;-68
2024/01/28 09:43:43;;;;;;;12.35;5.80;;;20.50;47.50;;;;;;5078156;28;20415;-67
2024/01/28 09:46:09;;;;;;;10.13;6.63;;;20.50;47.50;;;;;;5077268;28;20032;-67
2024/01/28 09:48:35;;;;;;;10.95;6.85;;;20.50;47.50;;;;;;5076471;28;20400;-67
2024/01/28 09:51:00;;;;;;;12.57;7.43;;;20.50;47.50;;;;;;5079014;28;20094;-67
2024/01/28 09:53:26;;;;;;;12.88;7.63;;;20.50;47.50;;;;;;5078111;28;20020;-67
2024/01/28 09:55:52;;;;;;;12.80;7.95;;;20.50;47.60;;;;;;5078438;28;20028;-67
2024/01/28 09:58:18;;;;;;;15.18;8.45;;;20.40;47.50;;;;;;5079860;28;20029;-67
2024/01/28 10:00:45;;;;;;;15.07;9.00;;;20.50;47.50;;;;;;5077961;28;20070;-67
2024/01/28 10:03:11;;;;;;;14.05;8.55;;;20.40;47.50;;;;;;5079947;28;20109;-67
2024/01/28 10:05:37;;;;;;;14.20;9.00;;;20.40;47.50;;;;;;5078381;28;20553;-67
2024/01/28 10:08:04;;;;;;;15.60;9.60;;;20.40;47.50;;;;;;5080207;28;20103;-67
2024/01/28 10:10:33;;;;;;;15.02;9.35;;;20.40;47.50;;;;;;5078850;28;20033;-67
2024/01/28 10:12:58;;;;;;;15.45;9.20;;;20.40;47.50;;;;;;5078712;28;20041;-67
2024/01/28 10:15:28;;;;;;;14.90;9.70;;;20.40;47.40;;;;;;5077095;28;20431;-67
2024/01/28 10:17:54;;;;;;;18.45;10.02;;;20.40;47.50;;;;;;5078018;28;20020;-67
2024/01/28 10:20:24;;;;;;;16.38;9.70;;;20.40;47.50;;;;;;5078643;28;20369;-67
2024/01/28 10:22:52;;;;;;;14.68;9.63;;;20.40;47.50;;;;;;5076538;28;20473;-67
2024/01/28 10:25:19;;;;;;;15.68;10.40;;;20.40;47.50;;;;;;5077819;28;20016;-64
2024/01/28 10:27:46;;;;;;;16.20;10.18;;;20.40;47.50;;;;;;5068607;28;20024;-63
2024/01/28 10:30:13;;;;;;;18.40;10.07;;;20.40;47.40;;;;;;5076105;28;20031;-65
2024/01/28 10:32:39;;;;;;;14.63;10.10;;;20.40;47.50;;;;;;5076623;28;20111;-64
2024/01/28 10:35:12;;;;;;;16.40;10.20;;;20.40;47.50;;;;;;5077345;28;20104;-64
2024/01/28 10:37:40;;;;;;;16.80;10.70;;;20.40;47.50;;;;;;5060452;28;20028;-64
2024/01/28 10:40:07;;;;;;;19.05;11.35;;;20.40;47.50;;;;;;5076027;28;20028;-64
2024/01/28 10:42:41;;;;;;;16.05;9.90;;;20.40;47.50;;;;;;5076855;28;20027;-64
2024/01/28 10:45:12;;;;;;;15.93;9.90;;;20.40;47.50;;;;;;5076295;28;20028;-67
2024/01/28 10:47:50;;;;;;;18.02;10.18;;;20.30;47.50;;;;;;5077925;28;20032;-67
2024/01/28 10:50:18;;;;;;;15.90;9.98;;;20.30;47.50;;;;;;5077039;28;20561;-67
2024/01/28 10:52:46;;;;;;;18.05;11.20;;;20.40;47.70;;;;;;5078752;28;20511;-66
2024/01/28 10:55:13;;;;;;;18.02;11.40;;;20.40;47.80;;;;;;5080127;28;20082;-66
2024/01/28 10:57:40;;;;;;;16.52;10.98;;;20.40;47.80;;;;;;5079835;28;20120;-67
2024/01/28 11:00:06;;;;;;;16.27;10.52;;;20.40;47.80;;;;;;5077681;28;20103;-67
2024/01/28 11:02:34;;;;;;;16.17;10.43;;;20.50;47.90;;;;;;5076114;28;20058;-66
2024/01/28 11:05:00;;;;;;;15.55;10.18;;;20.50;47.90;;;;;;5083291;28;20024;-66
2024/01/28 11:07:28;;;;;;;16.42;10.50;;;20.60;48.00;;;;;;5082898;28;20024;-66
2024/01/28 11:09:54;;;;;;;16.40;10.48;;;20.60;48.00;;;;;;5081337;28;20036;-67
2024/01/28 11:12:20;;;;;;;14.02;9.02;;;20.60;48.00;;;;;;5082766;28;20034;-67
2024/01/28 11:14:46;;;;;;;14.63;9.10;;;20.60;47.90;;;;;;5083085;28;20062;-67
2024/01/28 11:17:13;;;;;;;16.80;9.82;;;20.60;47.90;;;;;;5080853;28;20393;-67
2024/01/28 11:19:39;;;;;;;15.98;9.70;;;20.70;48.00;;;;;;5083907;28;20028;-66
2024/01/28 11:22:12;;;;;;;16.95;10.10;;;20.70;48.00;;;;;;5082319;28;20027;-67
2024/01/28 11:24:48;;;;;;;13.77;8.77;;;20.70;47.90;;;;;;5081619;28;20587;-68
2024/01/28 11:27:14;;;;;;;14.90;8.95;;;20.80;48.00;;;;;;5081187;28;20034;-67
2024/01/28 11:29:39;;;;;;;12.00;7.82;;;20.80;47.90;;;;;;5071203;28;20066;-67
2024/01/28 11:32:07;;;;;;;11.35;7.45;;;20.80;47.90;;;;;;5070249;28;20032;-68
2024/01/28 11:34:33;;;;;;;10.40;7.05;;;20.90;48.00;;;;;;5082909;28;20040;-66
2024/01/28 11:36:59;;;;;;;12.98;7.75;;;20.90;48.00;;;;;;5084198;28;20081;-67
2024/01/28 11:39:34;;;;;;;10.48;7.22;;;20.90;48.50;;;;;;5082999;28;20052;-67
2024/01/28 11:42:01;;;;;;;10.90;7.15;;;21.00;48.00;;;;;;5080506;28;20484;-66
2024/01/28 11:44:27;;;;;;;10.65;6.88;;;20.90;48.00;;;;;;5079651;28;20016;-67
2024/01/28 11:46:54;;;;;;;9.15;6.47;;;21.00;48.00;;;;;;5094100;28;20028;-66
2024/01/28 11:49:20;;;;;;;10.50;6.28;;;21.00;48.00;;;;;;5082067;28;20089;-66
2024/01/28 11:51:46;;;;;;;9.80;6.35;;;21.10;48.10;;;;;;5082033;28;20024;-66
2024/01/28 11:54:11;;;;;;;9.27;5.97;;;21.00;48.00;;;;;;5080031;28;20036;-65
2024/01/28 11:56:37;;;;;;;9.68;6.00;;;21.10;48.10;;;;;;5078811;28;20033;-66
2024/01/28 11:59:03;;;;;;;8.95;5.78;;;21.10;48.20;;;;;;5079624;28;20024;-67
2024/01/28 12:01:29;;;;;;;9.63;6.05;;;21.20;48.20;;;;;;5062425;28;20025;-66
2024/01/28 12:03:55;;;;;;;10.55;6.03;;;21.20;48.20;;;;;;5080018;28;20492;-65
2024/01/28 12:06:23;;;;;;;7.97;5.60;;;21.20;48.20;;;;;;5080029;28;20032;-67
2024/01/28 12:08:49;;;;;;;8.27;5.25;;;21.20;48.30;;;;;;5080869;28;20484;-66
2024/01/28 12:11:18;;;;;;;7.93;5.10;;;21.20;48.30;;;;;;5060800;28;20491;-66
2024/01/28 12:13:44;;;;;;;7.82;6.00;;;21.30;48.30;;;;;;5080054;28;20102;-66
2024/01/28 12:16:10;;;;;;;9.05;5.43;;;21.30;48.30;;;;;;5081798;28;20135;-65
2024/01/28 12:18:41;;;;;;;8.55;5.43;;;21.30;48.20;;;;;;5080815;28;20400;-66
2024/01/28 12:21:26;;;;;;;6.53;4.60;;;21.30;48.20;;;;;;5080529;28;20093;-66
2024/01/28 12:23:58;;;;;;;7.43;4.80;;;21.40;48.30;;;;;;5077258;28;20093;-66
2024/01/28 12:26:34;;;;;;;9.00;5.30;;;21.40;48.30;;;;;;5061432;28;20487;-66
2024/01/28 12:29:01;;;;;;;8.88;5.57;;;21.50;48.30;;;;;;5081292;28;20031;-65
2024/01/28 12:31:27;;;;;;;7.18;4.90;;;21.50;48.30;;;;;;5077907;28;20480;-65
2024/01/28 12:33:53;;;;;;;8.02;4.75;;;21.50;48.30;;;;;;5078496;28;20484;-65
2024/01/28 12:36:19;;;;;;;7.90;5.10;;;21.50;48.30;;;;;;5079739;28;20119;-66
2024/01/28 12:38:45;;;;;;;7.72;4.85;;;21.60;48.30;;;;;;5079148;28;20024;-66
2024/01/28 12:41:11;;;;;;;6.85;4.50;;;21.60;48.20;;;;;;5070153;28;20397;-66